Time,TemperatureF,DewpointF,PressureIn,WindDirection,WindDirectionDegrees,WindSpeedMPH,WindSpeedGustMPH,Humidity,HourlyPrecipIn,Conditions,Clouds,dailyrainin,SolarRadiationWatts/m^2,SoftwareType,DateUTC
2013-02-17 00:00:00,52.1,14.4,29.94,ENE,63,0.0,0.0,22,0.00,,,0.00,0,LWC V2.00 B727,2013-02-17 07:00:00,
2013-02-17 00:05:00,50.0,14.6,29.94,NE,48,1.0,4.0,24,0.00,,,0.00,0,LWC V2.00 B727,2013-02-17 07:05:00,
2013-02-17 00:10:00,50.7,12.2,29.94,NNE,18,7.0,7.0,21,0.00,,,0.00,0,LWC V2.00 B727,2013-02-17 07:10:00,
2013-02-17 00:15:00,52.7,11.6,29.94,NNE,24,5.0,6.0,19,0.00,,,0.00,0,LWC V2.00 B727,2013-02-17 07:15:00,
2013-02-17 00:20:00,54.1,10.3,29.94,NNE,32,2.0,4.0,17,0.00,,,0.00,0,LWC V2.00 B727,2013-02-17 07:20:00,
2013-02-17 00:25:00,56.0,9.0,29.94,NE,40,0.0,5.0,15,0.00,,,0.00,0,LWC V2.00 B727,2013-02-17 07:25:00,
2013-02-17 00:30:00,57.3,11.5,29.94,NE,40,1.0,3.0,16,0.00,,,0.00,0,LWC V2.00 B727,2013-02-17 07:30:00,
2013-02-17 00:35:00,54.4,13.0,29.94,NE,40,0.0,0.0,19,0.00,,,0.00,0,LWC V2.00 B727,2013-02-17 07:35:00,
2013-02-17 00:40:00,53.1,13.1,29.94,NE,40,0.0,1.0,20,0.00,,,0.00,0,LWC V2.00 B727,2013-02-17 07:40:00,
2013-02-17 00:45:00,51.6,14.0,29.94,NE,40,0.0,0.0,22,0.00,,,0.00,0,LWC V2.00 B727,2013-02-17 07:45:00,
2013-02-17 00:50:00,50.8,13.3,29.94,NE,40,0.0,0.0,22,0.00,,,0.00,0,LWC V2.00 B727,2013-02-17 07:50:00,
2013-02-17 00:55:00,50.1,12.8,29.94,NE,40,0.0,0.0,22,0.00,,,0.00,0,LWC V2.00 B727,2013-02-17 07:55:00,
2013-02-17 01:00:00,50.8,13.3,29.94,NE,40,1.0,2.0,22,0.00,,,0.00,0,LWC V2.00 B727,2013-02-17 08:00:00,
2013-02-17 01:05:00,51.7,11.9,29.94,NE,40,0.0,1.0,20,0.00,,,0.00,0,LWC V2.00 B727,2013-02-17 08:05:00,
2013-02-17 01:10:00,52.8,10.5,29.93,NE,40,0.0,2.0,18,0.00,,,0.00,0,LWC V2.00 B727,2013-02-17 08:10:00,
2013-02-17 01:15:00,53.3,12.1,29.93,NE,40,0.0,0.0,19,0.00,,,0.00,0,LWC V2.00 B727,2013-02-17 08:15:00,
2013-02-17 01:20:00,53.0,10.7,29.94,NE,40,0.0,0.0,18,0.00,,,0.00,0,LWC V2.00 B727,2013-02-17 08:20:00,
2013-02-17 01:25:00,53.6,8.5,29.93,NE,40,0.0,0.0,16,0.00,,,0.00,0,LWC V2.00 B727,2013-02-17 08:25:00,
2013-02-17 01:30:00,54.5,9.3,29.93,NE,40,0.0,1.0,16,0.00,,,0.00,0,LWC V2.00 B727,2013-02-17 08:30:00,
2013-02-17 01:35:00,54.0,8.8,29.93,NE,40,0.0,5.0,16,0.00,,,0.00,0,LWC V2.00 B727,2013-02-17 08:35:00,
2013-02-17 01:40:00,53.3,10.9,29.93,NE,40,0.0,3.0,18,0.00,,,0.00,0,LWC V2.00 B727,2013-02-17 08:40:00,
2013-02-17 01:45:00,52.6,11.5,29.93,NE,40,0.0,0.0,19,0.00,,,0.00,0,LWC V2.00 B727,2013-02-17 08:45:00,
2013-02-17 01:50:00,52.3,11.3,29.93,NE,40,1.0,1.0,19,0.00,,,0.00,0,LWC V2.00 B727,2013-02-17 08:50:00,
2013-02-17 01:55:00,51.8,10.9,29.93,ENE,69,3.0,4.0,19,0.00,,,0.00,0,LWC V2.00 B727,2013-02-17 08:55:00,
2013-02-17 02:00:00,51.7,11.9,29.93,ENE,69,3.0,4.0,20,0.00,,,0.00,0,LWC V2.00 B727,2013-02-17 09:00:00,
2013-02-17 02:05:00,52.3,11.3,29.92,ENE,69,4.0,4.0,19,0.00,,,0.00,0,LWC V2.00 B727,2013-02-17 09:05:00,
2013-02-17 02:10:00,52.5,11.5,29.92,ENE,67,4.0,6.0,19,0.00,,,0.00,0,LWC V2.00 B727,2013-02-17 09:10:00,
2013-02-17 02:15:00,52.1,11.1,29.92,ENE,70,3.0,5.0,19,0.00,,,0.00,0,LWC V2.00 B727,2013-02-17 09:15:00,
2013-02-17 02:20:00,51.9,12.1,29.92,ENE,69,1.0,3.0,20,0.00,,,0.00,0,LWC V2.00 B727,2013-02-17 09:20:00,
2013-02-17 02:25:00,51.1,12.5,29.92,ENE,69,0.0,1.0,21,0.00,,,0.00,0,LWC V2.00 B727,2013-02-17 09:25:00,
2013-02-17 02:30:00,51.4,11.7,29.92,ENE,69,1.0,1.0,20,0.00,,,0.00,0,LWC V2.00 B727,2013-02-17 09:30:00,
2013-02-17 02:35:00,51.1,11.4,29.92,ENE,69,0.0,0.0,20,0.00,,,0.00,0,LWC V2.00 B727,2013-02-17 09:35:00,
2013-02-17 02:40:00,51.1,11.4,29.91,ENE,69,0.0,0.0,20,0.00,,,0.00,0,LWC V2.00 B727,2013-02-17 09:40:00,
2013-02-17 02:45:00,51.4,10.5,29.91,ENE,69,1.0,3.0,19,0.00,,,0.00,0,LWC V2.00 B727,2013-02-17 09:45:00,
2013-02-17 02:50:00,51.8,10.9,29.91,ENE,69,2.0,3.0,19,0.00,,,0.00,0,LWC V2.00 B727,2013-02-17 09:50:00,
2013-02-17 02:55:00,52.4,10.2,29.91,ENE,69,4.0,4.0,18,0.00,,,0.00,0,LWC V2.00 B727,2013-02-17 09:55:00,
2013-02-17 03:00:00,52.0,12.2,29.91,ENE,69,0.0,1.0,20,0.00,,,0.00,0,LWC V2.00 B727,2013-02-17 10:00:00,
2013-02-17 03:05:00,50.5,12.0,29.90,ENE,69,0.0,2.0,21,0.00,,,0.00,0,LWC V2.00 B727,2013-02-17 10:05:00,
2013-02-17 03:10:00,50.4,10.9,29.90,ENE,69,3.0,5.0,20,0.00,,,0.00,0,LWC V2.00 B727,2013-02-17 10:10:00,
2013-02-17 03:15:00,51.5,10.6,29.90,ENE,69,0.0,3.0,19,0.00,,,0.00,0,LWC V2.00 B727,2013-02-17 10:15:00,
2013-02-17 03:20:00,53.0,9.4,29.90,ENE,69,0.0,1.0,17,0.00,,,0.00,0,LWC V2.00 B727,2013-02-17 10:20:00,
2013-02-17 03:25:00,53.2,9.5,29.90,ENE,69,0.0,0.0,17,0.00,,,0.00,0,LWC V2.00 B727,2013-02-17 10:25:00,
2013-02-17 03:30:00,50.2,13.9,29.90,ENE,69,0.0,0.0,23,0.00,,,0.00,0,LWC V2.00 B727,2013-02-17 10:30:00,
2013-02-17 03:35:00,48.3,13.2,29.90,ENE,69,2.0,4.0,24,0.00,,,0.00,0,LWC V2.00 B727,2013-02-17 10:35:00,
2013-02-17 03:40:00,49.1,12.9,29.90,ENE,69,1.0,3.0,23,0.00,,,0.00,0,LWC V2.00 B727,2013-02-17 10:40:00,
2013-02-17 03:45:00,48.4,13.3,29.90,ENE,69,3.0,4.0,24,0.00,,,0.00,0,LWC V2.00 B727,2013-02-17 10:45:00,
2013-02-17 03:50:00,47.8,13.7,29.90,ENE,69,3.0,5.0,25,0.00,,,0.00,0,LWC V2.00 B727,2013-02-17 10:50:00,
2013-02-17 03:55:00,48.0,13.0,29.89,ENE,69,3.0,5.0,24,0.00,,,0.00,0,LWC V2.00 B727,2013-02-17 10:55:00,
2013-02-17 04:00:00,48.7,13.5,29.89,ENE,71,2.0,4.0,24,0.00,,,0.00,0,LWC V2.00 B727,2013-02-17 11:00:00,
2013-02-17 04:05:00,49.6,13.3,29.89,ENE,71,2.0,2.0,23,0.00,,,0.00,0,LWC V2.00 B727,2013-02-17 11:05:00,
2013-02-17 04:10:00,49.8,12.5,29.89,ENE,71,0.0,2.0,22,0.00,,,0.00,0,LWC V2.00 B727,2013-02-17 11:10:00,
2013-02-17 04:15:00,50.4,12.0,29.89,ENE,71,0.0,1.0,21,0.00,,,0.00,0,LWC V2.00 B727,2013-02-17 11:15:00,
2013-02-17 04:20:00,50.8,11.2,29.89,ENE,71,0.0,1.0,20,0.00,,,0.00,0,LWC V2.00 B727,2013-02-17 11:20:00,
2013-02-17 04:25:00,51.4,11.7,29.88,ENE,71,0.0,0.0,20,0.00,,,0.00,0,LWC V2.00 B727,2013-02-17 11:25:00,
2013-02-17 04:30:00,51.7,9.6,29.88,ENE,71,0.0,0.0,18,0.00,,,0.00,0,LWC V2.00 B727,2013-02-17 11:30:00,
2013-02-17 04:35:00,51.8,9.7,29.88,ENE,71,0.0,0.0,18,0.00,,,0.00,0,LWC V2.00 B727,2013-02-17 11:35:00,
2013-02-17 04:40:00,51.5,9.4,29.88,ENE,71,0.0,0.0,18,0.00,,,0.00,0,LWC V2.00 B727,2013-02-17 11:40:00,
2013-02-17 04:45:00,51.0,10.2,29.88,ENE,71,0.0,0.0,19,0.00,,,0.00,0,LWC V2.00 B727,2013-02-17 11:45:00,
2013-02-17 04:50:00,49.8,12.5,29.88,ENE,71,0.0,0.0,22,0.00,,,0.00,0,LWC V2.00 B727,2013-02-17 11:50:00,
2013-02-17 04:55:00,48.1,11.1,29.88,ENE,71,0.0,0.0,22,0.00,,,0.00,0,LWC V2.00 B727,2013-02-17 11:55:00,
2013-02-17 05:00:00,46.5,12.6,29.88,ENE,71,0.0,0.0,25,0.00,,,0.00,0,LWC V2.00 B727,2013-02-17 12:00:00,
2013-02-17 05:05:00,45.3,12.5,29.88,ENE,71,0.0,0.0,26,0.00,,,0.00,0,LWC V2.00 B727,2013-02-17 12:05:00,
2013-02-17 05:10:00,45.5,11.7,29.88,ENE,71,2.0,2.0,25,0.00,,,0.00,0,LWC V2.00 B727,2013-02-17 12:10:00,
2013-02-17 05:15:00,47.0,13.0,29.88,ENE,71,0.0,2.0,25,0.00,,,0.00,0,LWC V2.00 B727,2013-02-17 12:15:00,
2013-02-17 05:20:00,47.9,12.9,29.88,ENE,71,0.0,0.0,24,0.00,,,0.00,0,LWC V2.00 B727,2013-02-17 12:20:00,
2013-02-17 05:25:00,49.6,10.2,29.88,ENE,71,0.0,0.0,20,0.00,,,0.00,0,LWC V2.00 B727,2013-02-17 12:25:00,
2013-02-17 05:30:00,51.7,9.6,29.88,ENE,71,0.0,0.0,18,0.00,,,0.00,0,LWC V2.00 B727,2013-02-17 12:30:00,
2013-02-17 05:35:00,52.3,10.1,29.88,ENE,71,1.0,1.0,18,0.00,,,0.00,0,LWC V2.00 B727,2013-02-17 12:35:00,
2013-02-17 05:40:00,51.3,10.5,29.88,ENE,71,0.0,0.0,19,0.00,,,0.00,0,LWC V2.00 B727,2013-02-17 12:40:00,
2013-02-17 05:45:00,50.5,10.9,29.88,ENE,71,4.0,4.0,20,0.00,,,0.00,0,LWC V2.00 B727,2013-02-17 12:45:00,
2013-02-17 05:50:00,50.0,12.7,29.88,ENE,71,3.0,5.0,22,0.00,,,0.00,0,LWC V2.00 B727,2013-02-17 12:50:00,
2013-02-17 05:55:00,49.5,12.3,29.88,ENE,71,4.0,4.0,22,0.00,,,0.00,0,LWC V2.00 B727,2013-02-17 12:55:00,
2013-02-17 06:00:00,49.3,12.1,29.88,ENE,65,3.0,5.0,22,0.00,,,0.00,0,LWC V2.00 B727,2013-02-17 13:00:00,
2013-02-17 06:05:00,49.5,12.3,29.87,ENE,65,4.0,4.0,22,0.00,,,0.00,0,LWC V2.00 B727,2013-02-17 13:05:00,
2013-02-17 06:10:00,49.8,11.5,29.87,ENE,65,3.0,4.0,21,0.00,,,0.00,0,LWC V2.00 B727,2013-02-17 13:10:00,
2013-02-17 06:15:00,50.1,10.6,29.87,ENE,65,3.0,4.0,20,0.00,,,0.00,0,LWC V2.00 B727,2013-02-17 13:15:00,
2013-02-17 06:20:00,49.7,11.4,29.88,ENE,65,3.0,4.0,21,0.00,,,0.00,0,LWC V2.00 B727,2013-02-17 13:20:00,
2013-02-17 06:25:00,48.7,12.6,29.88,ENE,65,0.0,1.0,23,0.00,,,0.00,0,LWC V2.00 B727,2013-02-17 13:25:00,
2013-02-17 06:30:00,49.2,9.9,29.87,ENE,65,0.0,0.0,20,0.00,,,0.00,0,LWC V2.00 B727,2013-02-17 13:30:00,
2013-02-17 06:35:00,50.8,8.8,29.88,ENE,65,0.0,0.0,18,0.00,,,0.00,0,LWC V2.00 B727,2013-02-17 13:35:00,
2013-02-17 06:40:00,51.2,9.2,29.87,ENE,65,0.0,1.0,18,0.00,,,0.00,0,LWC V2.00 B727,2013-02-17 13:40:00,
2013-02-17 06:45:00,50.8,10.1,29.87,ENE,65,0.0,2.0,19,0.00,,,0.00,0,LWC V2.00 B727,2013-02-17 13:45:00,
2013-02-17 06:50:00,50.8,10.1,29.88,ENE,65,0.0,1.0,19,0.00,,,0.00,0,LWC V2.00 B727,2013-02-17 13:50:00,
2013-02-17 06:55:00,50.0,12.7,29.88,ENE,70,4.0,7.0,22,0.00,,,0.00,0,LWC V2.00 B727,2013-02-17 13:55:00,
2013-02-17 07:00:00,48.8,12.7,29.87,ENE,68,4.0,5.0,23,0.00,,,0.00,0,LWC V2.00 B727,2013-02-17 14:00:00,
2013-02-17 07:05:00,48.1,12.1,29.87,ENE,71,3.0,4.0,23,0.00,,,0.00,5,LWC V2.00 B727,2013-02-17 14:05:00,
2013-02-17 07:10:00,48.1,12.1,29.87,ENE,71,2.0,3.0,23,0.00,,,0.00,7,LWC V2.00 B727,2013-02-17 14:10:00,
2013-02-17 07:15:00,48.8,10.6,29.87,ENE,71,1.0,3.0,21,0.00,,,0.00,11,LWC V2.00 B727,2013-02-17 14:15:00,
2013-02-17 07:20:00,50.0,10.5,29.87,ENE,71,2.0,4.0,20,0.00,,,0.00,12,LWC V2.00 B727,2013-02-17 14:20:00,
2013-02-17 07:25:00,50.0,10.5,29.87,ENE,71,2.0,3.0,20,0.00,,,0.00,16,LWC V2.00 B727,2013-02-17 14:25:00,
2013-02-17 07:30:00,50.6,11.0,29.88,ENE,71,0.0,1.0,20,0.00,,,0.00,18,LWC V2.00 B727,2013-02-17 14:30:00,
2013-02-17 07:35:00,50.1,10.6,29.88,ENE,71,0.0,0.0,20,0.00,,,0.00,21,LWC V2.00 B727,2013-02-17 14:35:00,
2013-02-17 07:40:00,49.7,11.4,29.88,ENE,71,0.0,0.0,21,0.00,,,0.00,21,LWC V2.00 B727,2013-02-17 14:40:00,
2013-02-17 07:45:00,48.9,11.8,29.88,ENE,71,0.0,0.0,22,0.00,,,0.00,23,LWC V2.00 B727,2013-02-17 14:45:00,
2013-02-17 07:50:00,49.1,11.9,29.88,ENE,71,1.0,2.0,22,0.00,,,0.00,25,LWC V2.00 B727,2013-02-17 14:50:00,
2013-02-17 07:55:00,49.3,12.1,29.88,ENE,71,1.0,2.0,22,0.00,,,0.00,26,LWC V2.00 B727,2013-02-17 14:55:00,
2013-02-17 08:00:00,49.7,12.4,29.88,ENE,71,1.0,3.0,22,0.00,,,0.00,158,LWC V2.00 B727,2013-02-17 15:00:00,
2013-02-17 08:05:00,50.6,14.2,29.88,ENE,71,2.0,3.0,23,0.00,,,0.00,176,LWC V2.00 B727,2013-02-17 15:05:00,
2013-02-17 08:10:00,51.7,14.1,29.88,ENE,71,3.0,4.0,22,0.00,,,0.00,195,LWC V2.00 B727,2013-02-17 15:10:00,
2013-02-17 08:15:00,52.5,15.8,29.88,ENE,71,0.0,0.0,23,0.00,,,0.00,211,LWC V2.00 B727,2013-02-17 15:15:00,
2013-02-17 08:20:00,52.6,17.8,29.88,ENE,71,0.0,0.0,25,0.00,,,0.00,229,LWC V2.00 B727,2013-02-17 15:20:00,
2013-02-17 08:25:00,53.5,16.6,29.88,ENE,71,0.0,0.0,23,0.00,,,0.00,246,LWC V2.00 B727,2013-02-17 15:25:00,
2013-02-17 08:30:00,54.5,18.5,29.88,ENE,71,0.0,1.0,24,0.00,,,0.00,264,LWC V2.00 B727,2013-02-17 15:30:00,
2013-02-17 08:35:00,55.1,17.0,29.88,ENE,71,0.0,1.0,22,0.00,,,0.00,283,LWC V2.00 B727,2013-02-17 15:35:00,
2013-02-17 08:40:00,56.1,18.8,29.88,ENE,71,0.0,1.0,23,0.00,,,0.00,301,LWC V2.00 B727,2013-02-17 15:40:00,
2013-02-17 08:45:00,56.8,19.4,29.88,ENE,71,0.0,0.0,23,0.00,,,0.00,318,LWC V2.00 B727,2013-02-17 15:45:00,
2013-02-17 08:50:00,55.8,19.6,29.89,ENE,71,0.0,0.0,24,0.00,,,0.00,330,LWC V2.00 B727,2013-02-17 15:50:00,
2013-02-17 08:55:00,55.3,16.0,29.89,ENE,71,0.0,0.0,21,0.00,,,0.00,350,LWC V2.00 B727,2013-02-17 15:55:00,
2013-02-17 09:00:00,56.6,16.0,29.89,ENE,71,0.0,0.0,20,0.00,,,0.00,362,LWC V2.00 B727,2013-02-17 16:00:00,
2013-02-17 09:05:00,56.3,16.9,29.89,ENE,71,0.0,0.0,21,0.00,,,0.00,388,LWC V2.00 B727,2013-02-17 16:05:00,
2013-02-17 09:10:00,56.8,16.2,29.89,ENE,71,0.0,0.0,20,0.00,,,0.00,404,LWC V2.00 B727,2013-02-17 16:10:00,
2013-02-17 09:15:00,57.7,15.7,29.89,ENE,71,0.0,0.0,19,0.00,,,0.00,424,LWC V2.00 B727,2013-02-17 16:15:00,
2013-02-17 09:20:00,58.6,11.1,29.89,ENE,71,0.0,1.0,15,0.00,,,0.00,443,LWC V2.00 B727,2013-02-17 16:20:00,
2013-02-17 09:25:00,59.9,13.6,29.89,ENE,71,2.0,3.0,16,0.00,,,0.00,457,LWC V2.00 B727,2013-02-17 16:25:00,
2013-02-17 09:30:00,60.0,16.4,29.89,ENE,71,0.0,0.0,18,0.00,,,0.00,425,LWC V2.00 B727,2013-02-17 16:30:00,
2013-02-17 09:35:00,60.7,17.0,29.89,ENE,71,0.0,0.0,18,0.00,,,0.00,452,LWC V2.00 B727,2013-02-17 16:35:00,
2013-02-17 09:40:00,60.8,15.7,29.89,ENE,71,1.0,1.0,17,0.00,,,0.00,461,LWC V2.00 B727,2013-02-17 16:40:00,
2013-02-17 09:45:00,60.5,15.5,29.88,ENE,71,0.0,3.0,17,0.00,,,0.00,517,LWC V2.00 B727,2013-02-17 16:45:00,
2013-02-17 09:50:00,60.5,16.8,29.89,ENE,71,1.0,1.0,18,0.00,,,0.00,536,LWC V2.00 B727,2013-02-17 16:50:00,
2013-02-17 09:55:00,60.8,17.0,29.88,ENE,71,1.0,3.0,18,0.00,,,0.00,555,LWC V2.00 B727,2013-02-17 16:55:00,
2013-02-17 10:00:00,61.3,16.1,29.88,ENE,71,0.0,2.0,17,0.00,,,0.00,577,LWC V2.00 B727,2013-02-17 17:00:00,
2013-02-17 10:05:00,61.6,17.7,29.88,ENE,71,0.0,0.0,18,0.00,,,0.00,615,LWC V2.00 B727,2013-02-17 17:05:00,
2013-02-17 10:10:00,62.4,18.3,29.88,ENE,71,1.0,3.0,18,0.00,,,0.00,605,LWC V2.00 B727,2013-02-17 17:10:00,
2013-02-17 10:15:00,62.8,19.9,29.88,SW,228,2.0,4.0,19,0.00,,,0.00,552,LWC V2.00 B727,2013-02-17 17:15:00,
2013-02-17 10:20:00,62.8,19.9,29.89,WSW,242,5.0,5.0,19,0.00,,,0.00,605,LWC V2.00 B727,2013-02-17 17:20:00,
2013-02-17 10:25:00,63.1,20.2,29.89,SW,232,1.0,4.0,19,0.00,,,0.00,629,LWC V2.00 B727,2013-02-17 17:25:00,
2013-02-17 10:30:00,63.5,17.9,29.88,WSW,242,7.0,7.0,17,0.00,,,0.00,643,LWC V2.00 B727,2013-02-17 17:30:00,
2013-02-17 10:35:00,63.3,17.8,29.88,SW,224,3.0,7.0,17,0.00,,,0.00,638,LWC V2.00 B727,2013-02-17 17:35:00,
2013-02-17 10:40:00,63.3,17.8,29.88,SW,220,3.0,7.0,17,0.00,,,0.00,664,LWC V2.00 B727,2013-02-17 17:40:00,
2013-02-17 10:45:00,64.0,19.7,29.88,SW,217,4.0,8.0,18,0.00,,,0.00,670,LWC V2.00 B727,2013-02-17 17:45:00,
2013-02-17 10:50:00,64.6,18.8,29.88,SW,221,3.0,6.0,17,0.00,,,0.00,689,LWC V2.00 B727,2013-02-17 17:50:00,
2013-02-17 10:55:00,65.6,16.7,29.88,WSW,238,4.0,7.0,15,0.00,,,0.00,696,LWC V2.00 B727,2013-02-17 17:55:00,
2013-02-17 11:00:00,66.2,13.9,29.88,SSW,213,5.0,11.0,13,0.00,,,0.00,577,LWC V2.00 B727,2013-02-17 18:00:00,
2013-02-17 11:05:00,66.1,13.8,29.88,SW,219,6.0,8.0,13,0.00,,,0.00,712,LWC V2.00 B727,2013-02-17 18:05:00,
2013-02-17 11:10:00,65.9,11.9,29.88,South,189,8.0,11.0,12,0.00,,,0.00,700,LWC V2.00 B727,2013-02-17 18:10:00,
2013-02-17 11:15:00,65.9,13.7,29.88,WSW,241,5.0,9.0,13,0.00,,,0.00,715,LWC V2.00 B727,2013-02-17 18:15:00,
2013-02-17 11:20:00,66.3,14.0,29.88,SSW,202,9.0,11.0,13,0.00,,,0.00,610,LWC V2.00 B727,2013-02-17 18:20:00,
2013-02-17 11:25:00,66.0,13.8,29.88,WSW,238,5.0,11.0,13,0.00,,,0.00,731,LWC V2.00 B727,2013-02-17 18:25:00,
2013-02-17 11:30:00,66.3,14.0,29.87,SW,233,8.0,10.0,13,0.00,,,0.00,717,LWC V2.00 B727,2013-02-17 18:30:00,
2013-02-17 11:35:00,66.7,12.5,29.87,WSW,247,7.0,7.0,12,0.00,,,0.00,747,LWC V2.00 B727,2013-02-17 18:35:00,
2013-02-17 11:40:00,67.3,13.0,29.87,SSW,195,5.0,10.0,12,0.00,,,0.00,756,LWC V2.00 B727,2013-02-17 18:40:00,
2013-02-17 11:45:00,66.6,12.4,29.87,WSW,257,8.0,12.0,12,0.00,,,0.00,758,LWC V2.00 B727,2013-02-17 18:45:00,
2013-02-17 11:50:00,67.0,12.7,29.87,SW,223,7.0,9.0,12,0.00,,,0.00,761,LWC V2.00 B727,2013-02-17 18:50:00,
2013-02-17 11:55:00,67.3,13.0,29.87,SW,227,7.0,10.0,12,0.00,,,0.00,765,LWC V2.00 B727,2013-02-17 18:55:00,
2013-02-17 12:00:00,67.5,13.1,29.87,SW,227,3.0,7.0,12,0.00,,,0.00,770,LWC V2.00 B727,2013-02-17 19:00:00,
2013-02-17 12:05:00,68.0,11.5,29.87,WSW,237,2.0,7.0,11,0.00,,,0.00,773,LWC V2.00 B727,2013-02-17 19:05:00,
2013-02-17 12:10:00,68.2,11.7,29.86,SW,221,9.0,11.0,11,0.00,,,0.00,772,LWC V2.00 B727,2013-02-17 19:10:00,
2013-02-17 12:15:00,67.8,13.4,29.86,North,355,5.0,10.0,12,0.00,,,0.00,765,LWC V2.00 B727,2013-02-17 19:15:00,
2013-02-17 12:20:00,67.8,13.4,29.86,SSW,208,1.0,9.0,12,0.00,,,0.00,780,LWC V2.00 B727,2013-02-17 19:20:00,
2013-02-17 12:25:00,67.6,13.2,29.85,SSW,197,2.0,9.0,12,0.00,,,0.00,780,LWC V2.00 B727,2013-02-17 19:25:00,
2013-02-17 12:30:00,67.5,14.9,29.85,SW,224,7.0,9.0,13,0.00,,,0.00,782,LWC V2.00 B727,2013-02-17 19:30:00,
2013-02-17 12:35:00,67.9,15.3,29.85,SSW,207,8.0,9.0,13,0.00,,,0.00,782,LWC V2.00 B727,2013-02-17 19:35:00,
2013-02-17 12:40:00,68.3,15.6,29.85,SW,235,7.0,8.0,13,0.00,,,0.00,780,LWC V2.00 B727,2013-02-17 19:40:00,
2013-02-17 12:45:00,68.8,14.1,29.85,West,279,1.0,8.0,12,0.00,,,0.00,779,LWC V2.00 B727,2013-02-17 19:45:00,
2013-02-17 12:50:00,69.2,14.4,29.84,WSW,257,3.0,8.0,12,0.00,,,0.00,780,LWC V2.00 B727,2013-02-17 19:50:00,
2013-02-17 12:55:00,69.1,14.4,29.84,SSW,213,7.0,12.0,12,0.00,,,0.00,780,LWC V2.00 B727,2013-02-17 19:55:00,
2013-02-17 13:00:00,68.6,15.8,29.84,SW,226,7.0,11.0,13,0.00,,,0.00,780,LWC V2.00 B727,2013-02-17 20:00:00,
2013-02-17 13:05:00,68.6,14.0,29.83,SW,227,7.0,11.0,12,0.00,,,0.00,777,LWC V2.00 B727,2013-02-17 20:05:00,
2013-02-17 13:10:00,68.3,13.7,29.83,SW,232,4.0,9.0,12,0.00,,,0.00,773,LWC V2.00 B727,2013-02-17 20:10:00,
2013-02-17 13:15:00,69.2,14.4,29.83,South,169,3.0,9.0,12,0.00,,,0.00,765,LWC V2.00 B727,2013-02-17 20:15:00,
2013-02-17 13:20:00,69.1,12.4,29.83,SSW,205,6.0,8.0,11,0.00,,,0.00,768,LWC V2.00 B727,2013-02-17 20:20:00,
2013-02-17 13:25:00,69.6,12.8,29.82,SSW,210,11.0,11.0,11,0.00,,,0.00,763,LWC V2.00 B727,2013-02-17 20:25:00,
2013-02-17 13:30:00,69.2,12.5,29.82,SW,231,5.0,13.0,11,0.00,,,0.00,758,LWC V2.00 B727,2013-02-17 20:30:00,
2013-02-17 13:35:00,69.6,12.8,29.82,SW,219,6.0,11.0,11,0.00,,,0.00,754,LWC V2.00 B727,2013-02-17 20:35:00,
2013-02-17 13:40:00,70.1,13.2,29.82,SSW,207,6.0,7.0,11,0.00,,,0.00,749,LWC V2.00 B727,2013-02-17 20:40:00,
2013-02-17 13:45:00,69.8,8.4,29.81,SW,227,6.0,7.0,9,0.00,,,0.00,742,LWC V2.00 B727,2013-02-17 20:45:00,
2013-02-17 13:50:00,70.2,8.7,29.81,SSW,205,5.0,10.0,9,0.00,,,0.00,737,LWC V2.00 B727,2013-02-17 20:50:00,
2013-02-17 13:55:00,71.0,11.7,29.81,WSW,252,5.0,8.0,10,0.00,,,0.00,728,LWC V2.00 B727,2013-02-17 20:55:00,
2013-02-17 14:00:00,70.4,8.9,29.81,West,275,4.0,8.0,9,0.00,,,0.00,724,LWC V2.00 B727,2013-02-17 21:00:00,
2013-02-17 14:05:00,71.1,11.8,29.81,SW,220,7.0,9.0,10,0.00,,,0.00,719,LWC V2.00 B727,2013-02-17 21:05:00,
2013-02-17 14:10:00,70.1,8.7,29.80,SW,221,6.0,12.0,9,0.00,,,0.00,708,LWC V2.00 B727,2013-02-17 21:10:00,
2013-02-17 14:15:00,70.7,9.1,29.80,SW,223,7.0,10.0,9,0.00,,,0.00,703,LWC V2.00 B727,2013-02-17 21:15:00,
2013-02-17 14:20:00,70.7,9.1,29.80,SSW,210,8.0,15.0,9,0.00,,,0.00,693,LWC V2.00 B727,2013-02-17 21:20:00,
2013-02-17 14:25:00,70.1,8.7,29.80,SSW,206,4.0,6.0,9,0.00,,,0.00,680,LWC V2.00 B727,2013-02-17 21:25:00,
2013-02-17 14:30:00,70.4,6.3,29.80,SW,230,5.0,10.0,8,0.00,,,0.00,671,LWC V2.00 B727,2013-02-17 21:30:00,
2013-02-17 14:35:00,69.9,8.5,29.80,SW,228,2.0,8.0,9,0.00,,,0.00,663,LWC V2.00 B727,2013-02-17 21:35:00,
2013-02-17 14:40:00,71.0,6.8,29.79,SW,215,10.0,14.0,8,0.00,,,0.00,654,LWC V2.00 B727,2013-02-17 21:40:00,
2013-02-17 14:45:00,70.9,6.7,29.79,SW,217,5.0,9.0,8,0.00,,,0.00,643,LWC V2.00 B727,2013-02-17 21:45:00,
2013-02-17 14:50:00,70.6,3.5,29.79,WSW,246,8.0,13.0,7,0.00,,,0.00,631,LWC V2.00 B727,2013-02-17 21:50:00,
2013-02-17 14:55:00,70.2,3.3,29.79,SW,229,6.0,10.0,7,0.00,,,0.00,619,LWC V2.00 B727,2013-02-17 21:55:00,
2013-02-17 15:00:00,70.3,6.2,29.79,West,261,5.0,10.0,8,0.00,,,0.00,606,LWC V2.00 B727,2013-02-17 22:00:00,
2013-02-17 15:05:00,70.7,3.6,29.79,SW,216,3.0,11.0,7,0.00,,,0.00,592,LWC V2.00 B727,2013-02-17 22:05:00,
2013-02-17 15:10:00,70.6,6.5,29.79,West,263,3.0,8.0,8,0.00,,,0.00,582,LWC V2.00 B727,2013-02-17 22:10:00,
2013-02-17 15:15:00,70.3,6.2,29.79,WSW,251,5.0,11.0,8,0.00,,,0.00,570,LWC V2.00 B727,2013-02-17 22:15:00,
2013-02-17 15:20:00,70.3,6.2,29.79,SW,221,5.0,10.0,8,0.00,,,0.00,555,LWC V2.00 B727,2013-02-17 22:20:00,
2013-02-17 15:25:00,70.2,6.2,29.79,SW,227,10.0,12.0,8,0.00,,,0.00,540,LWC V2.00 B727,2013-02-17 22:25:00,
2013-02-17 15:30:00,69.8,5.9,29.79,SSW,200,6.0,10.0,8,0.00,,,0.00,524,LWC V2.00 B727,2013-02-17 22:30:00,
2013-02-17 15:35:00,70.0,6.0,29.78,SW,224,3.0,6.0,8,0.00,,,0.00,508,LWC V2.00 B727,2013-02-17 22:35:00,
2013-02-17 15:40:00,70.8,6.6,29.79,SW,217,8.0,11.0,8,0.00,,,0.00,494,LWC V2.00 B727,2013-02-17 22:40:00,
2013-02-17 15:45:00,70.1,6.1,29.79,WSW,245,7.0,13.0,8,0.00,,,0.00,478,LWC V2.00 B727,2013-02-17 22:45:00,
2013-02-17 15:50:00,69.7,2.9,29.79,SW,224,6.0,9.0,7,0.00,,,0.00,462,LWC V2.00 B727,2013-02-17 22:50:00,
2013-02-17 15:55:00,69.7,5.8,29.78,West,259,8.0,21.0,8,0.00,,,0.00,446,LWC V2.00 B727,2013-02-17 22:55:00,
2013-02-17 16:00:00,70.0,6.0,29.78,West,266,8.0,11.0,8,0.00,,,0.00,431,LWC V2.00 B727,2013-02-17 23:00:00,
2013-02-17 16:05:00,69.9,5.9,29.79,SW,227,6.0,9.0,8,0.00,,,0.00,413,LWC V2.00 B727,2013-02-17 23:05:00,
2013-02-17 16:10:00,69.4,5.6,29.79,WNW,302,3.0,6.0,8,0.00,,,0.00,396,LWC V2.00 B727,2013-02-17 23:10:00,
2013-02-17 16:15:00,69.3,8.1,29.79,WSW,242,6.0,12.0,9,0.00,,,0.00,378,LWC V2.00 B727,2013-02-17 23:15:00,
2013-02-17 16:20:00,69.1,7.9,29.79,WSW,246,6.0,8.0,9,0.00,,,0.00,360,LWC V2.00 B727,2013-02-17 23:20:00,
2013-02-17 16:25:00,69.3,8.1,29.79,SW,236,1.0,6.0,9,0.00,,,0.00,345,LWC V2.00 B727,2013-02-17 23:25:00,
2013-02-17 16:30:00,69.2,10.3,29.79,WSW,237,6.0,11.0,10,0.00,,,0.00,327,LWC V2.00 B727,2013-02-17 23:30:00,
2013-02-17 16:35:00,69.1,7.9,29.79,WSW,251,4.0,9.0,9,0.00,,,0.00,309,LWC V2.00 B727,2013-02-17 23:35:00,
2013-02-17 16:40:00,68.6,9.9,29.79,SW,226,4.0,10.0,10,0.00,,,0.00,290,LWC V2.00 B727,2013-02-17 23:40:00,
2013-02-17 16:45:00,68.6,9.9,29.79,WSW,244,8.0,9.0,10,0.00,,,0.00,271,LWC V2.00 B727,2013-02-17 23:45:00,
2013-02-17 16:50:00,68.3,9.6,29.79,SW,221,8.0,8.0,10,0.00,,,0.00,250,LWC V2.00 B727,2013-02-17 23:50:00,
2013-02-17 16:55:00,68.2,9.6,29.79,West,275,8.0,8.0,10,0.00,,,0.00,227,LWC V2.00 B727,2013-02-17 23:55:00,
2013-02-17 17:00:00,68.0,9.4,29.79,WSW,238,7.0,9.0,10,0.00,,,0.00,207,LWC V2.00 B727,2013-02-18 00:00:00,
2013-02-17 17:05:00,67.6,9.1,29.79,SSW,205,9.0,10.0,10,0.00,,,0.00,185,LWC V2.00 B727,2013-02-18 00:05:00,
2013-02-17 17:10:00,67.6,9.1,29.79,SW,236,2.0,8.0,10,0.00,,,0.00,163,LWC V2.00 B727,2013-02-18 00:10:00,
2013-02-17 17:15:00,67.6,9.1,29.79,SW,221,5.0,10.0,10,0.00,,,0.00,141,LWC V2.00 B727,2013-02-18 00:15:00,
2013-02-17 17:20:00,67.4,9.0,29.79,SW,228,5.0,14.0,10,0.00,,,0.00,118,LWC V2.00 B727,2013-02-18 00:20:00,
2013-02-17 17:25:00,67.0,6.3,29.80,SW,224,8.0,17.0,9,0.00,,,0.00,100,LWC V2.00 B727,2013-02-18 00:25:00,
2013-02-17 17:30:00,66.7,8.4,29.80,WSW,244,6.0,16.0,10,0.00,,,0.00,81,LWC V2.00 B727,2013-02-18 00:30:00,
2013-02-17 17:35:00,66.4,8.2,29.80,SW,224,5.0,12.0,10,0.00,,,0.00,67,LWC V2.00 B727,2013-02-18 00:35:00,
2013-02-17 17:40:00,66.2,8.0,29.80,WSW,244,4.0,8.0,10,0.00,,,0.00,51,LWC V2.00 B727,2013-02-18 00:40:00,
2013-02-17 17:45:00,65.9,9.9,29.80,SW,217,6.0,9.0,11,0.00,,,0.00,32,LWC V2.00 B727,2013-02-18 00:45:00,
2013-02-17 17:50:00,65.4,9.5,29.80,WSW,253,2.0,6.0,11,0.00,,,0.00,25,LWC V2.00 B727,2013-02-18 00:50:00,
2013-02-17 17:55:00,65.1,11.3,29.80,WSW,240,3.0,6.0,12,0.00,,,0.00,16,LWC V2.00 B727,2013-02-18 00:55:00,
2013-02-17 18:00:00,64.5,10.8,29.80,WSW,238,3.0,8.0,12,0.00,,,0.00,12,LWC V2.00 B727,2013-02-18 01:00:00,
2013-02-17 18:05:00,64.2,10.5,29.80,SW,227,4.0,7.0,12,0.00,,,0.00,9,LWC V2.00 B727,2013-02-18 01:05:00,
2013-02-17 18:10:00,63.9,10.3,29.80,SW,228,4.0,7.0,12,0.00,,,0.00,7,LWC V2.00 B727,2013-02-18 01:10:00,
2013-02-17 18:15:00,63.5,10.0,29.81,WSW,247,2.0,5.0,12,0.00,,,0.00,5,LWC V2.00 B727,2013-02-18 01:15:00,
2013-02-17 18:20:00,63.0,11.4,29.81,SW,223,5.0,8.0,13,0.00,,,0.00,0,LWC V2.00 B727,2013-02-18 01:20:00,
2013-02-17 18:25:00,62.6,11.1,29.81,SW,226,4.0,4.0,13,0.00,,,0.00,0,LWC V2.00 B727,2013-02-18 01:25:00,
2013-02-17 18:30:00,62.1,12.4,29.81,SSW,209,0.0,5.0,14,0.00,,,0.00,0,LWC V2.00 B727,2013-02-18 01:30:00,
2013-02-17 18:35:00,61.6,12.0,29.81,SW,217,3.0,4.0,14,0.00,,,0.00,0,LWC V2.00 B727,2013-02-18 01:35:00,
2013-02-17 18:40:00,61.1,11.6,29.81,SW,232,1.0,4.0,14,0.00,,,0.00,0,LWC V2.00 B727,2013-02-18 01:40:00,
2013-02-17 18:45:00,61.2,11.6,29.82,SW,215,2.0,4.0,14,0.00,,,0.00,0,LWC V2.00 B727,2013-02-18 01:45:00,
2013-02-17 18:50:00,60.9,13.0,29.82,SW,220,3.0,5.0,15,0.00,,,0.00,0,LWC V2.00 B727,2013-02-18 01:50:00,
2013-02-17 18:55:00,60.7,12.8,29.82,SSW,211,2.0,3.0,15,0.00,,,0.00,0,LWC V2.00 B727,2013-02-18 01:55:00,
2013-02-17 19:00:00,60.4,12.6,29.83,SSW,206,2.0,3.0,15,0.00,,,0.00,0,LWC V2.00 B727,2013-02-18 02:00:00,
2013-02-17 19:05:00,60.1,13.8,29.83,SSW,212,0.0,3.0,16,0.00,,,0.00,0,LWC V2.00 B727,2013-02-18 02:05:00,
2013-02-17 19:10:00,59.8,13.5,29.83,SSW,196,0.0,2.0,16,0.00,,,0.00,0,LWC V2.00 B727,2013-02-18 02:10:00,
2013-02-17 19:15:00,59.6,13.4,29.83,SSW,196,0.0,1.0,16,0.00,,,0.00,0,LWC V2.00 B727,2013-02-18 02:15:00,
2013-02-17 19:20:00,59.3,13.1,29.83,SSW,196,0.0,1.0,16,0.00,,,0.00,0,LWC V2.00 B727,2013-02-18 02:20:00,
2013-02-17 19:25:00,59.0,12.9,29.83,SSW,211,0.0,4.0,16,0.00,,,0.00,0,LWC V2.00 B727,2013-02-18 02:25:00,
2013-02-17 19:30:00,58.9,12.8,29.83,SSW,211,0.0,2.0,16,0.00,,,0.00,0,LWC V2.00 B727,2013-02-18 02:30:00,
2013-02-17 19:35:00,58.6,13.9,29.84,SSW,211,0.0,1.0,17,0.00,,,0.00,0,LWC V2.00 B727,2013-02-18 02:35:00,
2013-02-17 19:40:00,58.1,14.8,29.84,SSW,211,0.0,0.0,18,0.00,,,0.00,0,LWC V2.00 B727,2013-02-18 02:40:00,
2013-02-17 19:45:00,57.5,13.0,29.84,SSW,211,2.0,2.0,17,0.00,,,0.00,0,LWC V2.00 B727,2013-02-18 02:45:00,
2013-02-17 19:50:00,58.0,13.5,29.84,SSW,211,0.0,3.0,17,0.00,,,0.00,0,LWC V2.00 B727,2013-02-18 02:50:00,
2013-02-17 19:55:00,58.0,13.5,29.84,SSW,211,0.0,3.0,17,0.00,,,0.00,0,LWC V2.00 B727,2013-02-18 02:55:00,
2013-02-17 20:00:00,57.6,14.4,29.85,SSW,211,0.0,0.0,18,0.00,,,0.00,0,LWC V2.00 B727,2013-02-18 03:00:00,
2013-02-17 20:05:00,57.5,14.3,29.85,SSW,211,0.0,0.0,18,0.00,,,0.00,0,LWC V2.00 B727,2013-02-18 03:05:00,
2013-02-17 20:10:00,57.7,14.5,29.85,SSW,201,0.0,6.0,18,0.00,,,0.00,0,LWC V2.00 B727,2013-02-18 03:10:00,
2013-02-17 20:15:00,57.5,14.3,29.85,SSW,201,0.0,0.0,18,0.00,,,0.00,0,LWC V2.00 B727,2013-02-18 03:15:00,
2013-02-17 20:20:00,57.2,14.1,29.85,SSW,201,0.0,0.0,18,0.00,,,0.00,0,LWC V2.00 B727,2013-02-18 03:20:00,
2013-02-17 20:25:00,57.1,15.2,29.86,SSW,201,0.0,0.0,19,0.00,,,0.00,0,LWC V2.00 B727,2013-02-18 03:25:00,
2013-02-17 20:30:00,56.7,14.9,29.86,SSW,201,0.0,0.0,19,0.00,,,0.00,0,LWC V2.00 B727,2013-02-18 03:30:00,
2013-02-17 20:35:00,56.3,15.8,29.86,SSW,201,0.0,1.0,20,0.00,,,0.00,0,LWC V2.00 B727,2013-02-18 03:35:00,
2013-02-17 20:40:00,55.9,15.4,29.86,SSW,201,0.0,1.0,20,0.00,,,0.00,0,LWC V2.00 B727,2013-02-18 03:40:00,
2013-02-17 20:45:00,55.6,16.3,29.87,SSW,201,0.0,3.0,21,0.00,,,0.00,0,LWC V2.00 B727,2013-02-18 03:45:00,
2013-02-17 20:50:00,55.7,16.4,29.87,SSW,201,0.0,1.0,21,0.00,,,0.00,0,LWC V2.00 B727,2013-02-18 03:50:00,
2013-02-17 20:55:00,55.8,16.5,29.87,SSW,201,0.0,0.0,21,0.00,,,0.00,0,LWC V2.00 B727,2013-02-18 03:55:00,
2013-02-17 21:00:00,55.7,16.4,29.87,SSW,201,0.0,1.0,21,0.00,,,0.00,0,LWC V2.00 B727,2013-02-18 04:00:00,
2013-02-17 21:05:00,56.0,16.6,29.87,SSW,202,4.0,4.0,21,0.00,,,0.00,0,LWC V2.00 B727,2013-02-18 04:05:00,
2013-02-17 21:10:00,56.4,17.0,29.87,SSW,203,3.0,5.0,21,0.00,,,0.00,0,LWC V2.00 B727,2013-02-18 04:10:00,
2013-02-17 21:15:00,56.5,17.0,29.87,SSW,203,0.0,2.0,21,0.00,,,0.00,0,LWC V2.00 B727,2013-02-18 04:15:00,
2013-02-17 21:20:00,56.4,17.0,29.87,SSW,207,0.0,0.0,21,0.00,,,0.00,0,LWC V2.00 B727,2013-02-18 04:20:00,
2013-02-17 21:25:00,56.2,17.9,29.87,SSW,208,0.0,0.0,22,0.00,,,0.00,0,LWC V2.00 B727,2013-02-18 04:25:00,
2013-02-17 21:30:00,56.2,16.8,29.88,SSW,207,0.0,3.0,21,0.00,,,0.00,0,LWC V2.00 B727,2013-02-18 04:30:00,
2013-02-17 21:35:00,56.0,17.7,29.88,SSW,207,0.0,1.0,22,0.00,,,0.00,0,LWC V2.00 B727,2013-02-18 04:35:00,
2013-02-17 21:40:00,56.0,17.7,29.88,SSW,207,0.0,1.0,22,0.00,,,0.00,0,LWC V2.00 B727,2013-02-18 04:40:00,
2013-02-17 21:45:00,56.0,18.7,29.88,SSW,207,0.0,1.0,23,0.00,,,0.00,0,LWC V2.00 B727,2013-02-18 04:45:00,
2013-02-17 21:50:00,55.9,19.6,29.88,SSW,207,0.0,1.0,24,0.00,,,0.00,0,LWC V2.00 B727,2013-02-18 04:50:00,
2013-02-17 21:55:00,55.4,20.2,29.88,SSW,207,0.0,0.0,25,0.00,,,0.00,0,LWC V2.00 B727,2013-02-18 04:55:00,
2013-02-17 22:00:00,55.1,20.8,29.88,SSW,207,2.0,2.0,26,0.00,,,0.00,0,LWC V2.00 B727,2013-02-18 05:00:00,
2013-02-17 22:05:00,54.7,20.5,29.88,South,178,2.0,2.0,26,0.00,,,0.00,0,LWC V2.00 B727,2013-02-18 05:05:00,
2013-02-17 22:10:00,54.4,21.1,29.88,SSE,163,2.0,4.0,27,0.00,,,0.00,0,LWC V2.00 B727,2013-02-18 05:10:00,
2013-02-17 22:15:00,54.3,21.9,29.88,SSE,157,1.0,4.0,28,0.00,,,0.00,0,LWC V2.00 B727,2013-02-18 05:15:00,
2013-02-17 22:20:00,54.7,22.2,29.88,SSE,158,0.0,3.0,28,0.00,,,0.00,0,LWC V2.00 B727,2013-02-18 05:20:00,
2013-02-17 22:25:00,54.6,22.2,29.89,SSE,158,0.0,1.0,28,0.00,,,0.00,0,LWC V2.00 B727,2013-02-18 05:25:00,
2013-02-17 22:30:00,54.2,22.6,29.89,SSE,158,2.0,2.0,29,0.00,,,0.00,0,LWC V2.00 B727,2013-02-18 05:30:00,
2013-02-17 22:35:00,53.9,23.2,29.88,SSE,157,2.0,3.0,30,0.00,,,0.00,0,LWC V2.00 B727,2013-02-18 05:35:00,
2013-02-17 22:40:00,53.9,23.2,29.88,SSE,158,1.0,2.0,30,0.00,,,0.00,0,LWC V2.00 B727,2013-02-18 05:40:00,
2013-02-17 22:45:00,53.7,23.8,29.88,SSE,158,0.0,3.0,31,0.00,,,0.00,0,LWC V2.00 B727,2013-02-18 05:45:00,
2013-02-17 22:50:00,53.8,23.9,29.89,South,175,1.0,2.0,31,0.00,,,0.00,0,LWC V2.00 B727,2013-02-18 05:50:00,
2013-02-17 22:55:00,53.8,23.9,29.89,South,174,0.0,1.0,31,0.00,,,0.00,0,LWC V2.00 B727,2013-02-18 05:55:00,
2013-02-17 23:00:00,53.6,24.5,29.89,South,174,0.0,1.0,32,0.00,,,0.00,0,LWC V2.00 B727,2013-02-18 06:00:00,
2013-02-17 23:05:00,53.5,24.4,29.89,South,174,0.0,2.0,32,0.00,,,0.00,0,LWC V2.00 B727,2013-02-18 06:05:00,
2013-02-17 23:10:00,53.4,25.0,29.89,South,173,0.0,2.0,33,0.00,,,0.00,0,LWC V2.00 B727,2013-02-18 06:10:00,
2013-02-17 23:15:00,53.2,24.9,29.89,South,173,0.0,1.0,33,0.00,,,0.00,0,LWC V2.00 B727,2013-02-18 06:15:00,
2013-02-17 23:20:00,52.9,25.3,29.89,South,173,0.0,1.0,34,0.00,,,0.00,0,LWC V2.00 B727,2013-02-18 06:20:00,
2013-02-17 23:25:00,52.8,25.2,29.89,South,173,0.0,1.0,34,0.00,,,0.00,0,LWC V2.00 B727,2013-02-18 06:25:00,
2013-02-17 23:30:00,52.5,25.0,29.89,South,173,3.0,4.0,34,0.00,,,0.00,0,LWC V2.00 B727,2013-02-18 06:30:00,
2013-02-17 23:35:00,52.2,25.4,29.89,South,173,1.0,3.0,35,0.00,,,0.00,0,LWC V2.00 B727,2013-02-18 06:35:00,
2013-02-17 23:40:00,52.1,25.3,29.89,South,171,1.0,3.0,35,0.00,,,0.00,0,LWC V2.00 B727,2013-02-18 06:40:00,
2013-02-17 23:45:00,51.1,25.1,29.90,South,171,0.0,2.0,36,0.00,,,0.00,0,LWC V2.00 B727,2013-02-18 06:45:00,
2013-02-17 23:50:00,50.9,24.9,29.89,South,171,3.0,3.0,36,0.00,,,0.00,0,LWC V2.00 B727,2013-02-18 06:50:00,
2013-02-17 23:55:00,51.4,25.4,29.89,South,171,2.0,3.0,36,0.00,,,0.00,0,LWC V2.00 B727,2013-02-18 06:55:00,